Time;durP1;ratioP1;P1;durP2;ratioP2;P2;SDS_P1;SDS_P2;PMS_P1;PMS_P2;Temp;Humidity;BMP_temperature;BMP_pressure;BME280_temperature;BME280_humidity;BME280_pressure;Samples;Min_cycle;Max_cycle;Signal;HPM_P1;HPM_P2
2021/06/29 00:02:14;;;;;;;9.23;5.55;;;26.70;53.10;;;;;;6117239;28;80511;-70
2021/06/29 00:05:14;;;;;;;8.13;5.25;;;26.70;53.20;;;;;;6121780;28;81004;-69
2021/06/29 00:08:15;;;;;;;7.43;5.57;;;26.70;53.10;;;;;;6130789;28;80452;-69
2021/06/29 00:11:16;;;;;;;9.38;5.85;;;26.70;53.20;;;;;;6130875;28;80631;-68
2021/06/29 00:14:17;;;;;;;6.82;5.50;;;26.70;53.30;;;;;;6128465;28;80580;-69
2021/06/29 00:17:17;;;;;;;7.50;5.40;;;26.70;53.50;;;;;;6109747;28;80510;-68
2021/06/29 00:20:18;;;;;;;8.38;6.38;;;26.70;53.40;;;;;;6104363;28;82514;-68
2021/06/29 00:23:18;;;;;;;6.32;5.20;;;26.70;53.30;;;;;;6120472;28;80338;-69
2021/06/29 00:26:19;;;;;;;7.43;5.43;;;26.70;53.20;;;;;;6121882;28;82281;-68
2021/06/29 00:29:19;;;;;;;8.75;6.20;;;26.70;53.20;;;;;;6125452;28;80649;-68
2021/06/29 00:32:20;;;;;;;5.70;5.15;;;26.70;53.40;;;;;;6127306;28;80478;-68
2021/06/29 00:35:20;;;;;;;6.18;5.13;;;26.70;53.40;;;;;;6126613;28;80642;-68
2021/06/29 00:38:21;;;;;;;6.45;5.00;;;26.70;53.50;;;;;;6133651;28;81218;-70
2021/06/29 00:41:21;;;;;;;7.07;5.38;;;26.70;53.30;;;;;;6135114;28;80490;-68
2021/06/29 00:44:22;;;;;;;10.07;6.07;;;26.70;53.40;;;;;;6133793;28;82282;-69
2021/06/29 00:47:23;;;;;;;7.07;5.35;;;26.70;53.60;;;;;;6130486;28;81076;-68
2021/06/29 00:50:23;;;;;;;8.80;5.93;;;26.70;53.50;;;;;;6120867;28;81320;-68
2021/06/29 00:53:24;;;;;;;9.77;5.88;;;26.70;53.40;;;;;;6112698;28;80472;-69
2021/06/29 00:56:24;;;;;;;7.20;5.03;;;26.70;53.70;;;;;;6135402;28;81425;-69
2021/06/29 00:59:25;;;;;;;7.93;5.72;;;26.70;53.40;;;;;;6132365;28;80221;-69
2021/06/29 01:02:25;;;;;;;8.18;5.63;;;26.70;53.70;;;;;;6124460;28;80473;-69
2021/06/29 01:05:26;;;;;;;8.60;5.28;;;26.70;53.40;;;;;;6128454;28;81329;-70
2021/06/29 01:08:26;;;;;;;7.68;5.28;;;26.70;53.50;;;;;;6125872;28;81048;-69
2021/06/29 01:11:27;;;;;;;7.68;5.47;;;26.70;53.40;;;;;;6133686;28;80393;-69
2021/06/29 01:14:27;;;;;;;7.57;5.93;;;26.70;53.70;;;;;;6137019;28;80683;-71
2021/06/29 01:17:28;;;;;;;6.80;5.55;;;26.70;54.00;;;;;;6135433;28;80363;-71
2021/06/29 01:20:31;;;;;;;8.40;6.00;;;26.70;53.70;;;;;;6136794;28;80564;-69
2021/06/29 01:23:32;;;;;;;8.27;5.63;;;26.70;53.80;;;;;;6139765;28;80326;-68
2021/06/29 01:26:35;;;;;;;10.48;5.60;;;26.60;53.50;;;;;;6125220;28;87825;-70
2021/06/29 01:32:39;;;;;;;12.10;6.35;;;26.60;53.80;;;;;;6134877;28;80791;-71
2021/06/29 01:35:40;;;;;;;8.50;6.32;;;26.60;53.60;;;;;;6135488;28;80336;-70
2021/06/29 01:38:41;;;;;;;9.45;6.18;;;26.60;53.70;;;;;;6135955;28;80381;-70
2021/06/29 01:41:41;;;;;;;8.80;5.90;;;26.60;53.60;;;;;;6137365;28;80488;-69
2021/06/29 01:44:42;;;;;;;10.00;6.40;;;26.60;53.60;;;;;;6132160;28;80281;-67
2021/06/29 01:50:43;;;;;;;8.02;6.25;;;26.60;53.30;;;;;;6137303;28;80522;-69
2021/06/29 01:53:46;;;;;;;8.60;5.78;;;26.60;53.70;;;;;;6137468;28;80442;-68
2021/06/29 01:56:47;;;;;;;10.77;6.63;;;26.60;53.50;;;;;;6133811;28;80556;-68
2021/06/29 01:59:49;;;;;;;10.57;6.82;;;26.60;53.30;;;;;;6125326;28;80913;-67
2021/06/29 02:02:49;;;;;;;8.23;6.65;;;26.60;53.60;;;;;;6124374;28;81187;-67
2021/06/29 02:05:50;;;;;;;12.38;6.63;;;26.60;53.40;;;;;;6121243;28;81492;-66
2021/06/29 02:08:51;;;;;;;9.80;6.68;;;26.60;53.50;;;;;;6134907;28;80523;-67
2021/06/29 02:11:51;;;;;;;9.98;6.40;;;26.60;53.50;;;;;;6134786;28;80380;-67
2021/06/29 02:14:52;;;;;;;9.70;6.47;;;26.60;53.50;;;;;;6112985;28;81407;-68
2021/06/29 02:17:52;;;;;;;10.48;6.75;;;26.60;53.70;;;;;;6125482;28;81699;-68
2021/06/29 02:20:53;;;;;;;9.13;6.43;;;26.60;53.70;;;;;;6136481;28;81768;-68
2021/06/29 02:23:53;;;;;;;9.93;6.15;;;26.60;53.70;;;;;;6137087;28;82186;-68
2021/06/29 02:26:54;;;;;;;8.52;6.20;;;26.60;54.30;;;;;;6133449;28;79989;-69
2021/06/29 02:29:56;;;;;;;7.38;5.70;;;26.60;53.90;;;;;;6135818;28;80750;-69
2021/06/29 02:32:56;;;;;;;12.55;6.65;;;26.60;53.70;;;;;;6128337;28;81220;-69
2021/06/29 02:35:57;;;;;;;8.55;6.10;;;26.60;53.90;;;;;;6126539;28;80387;-69
2021/06/29 02:38:57;;;;;;;10.48;6.68;;;26.60;53.70;;;;;;6136976;28;80490;-68
2021/06/29 02:41:58;;;;;;;9.60;6.80;;;26.50;53.80;;;;;;6136623;28;80859;-68
2021/06/29 02:45:05;;;;;;;10.63;6.45;;;26.50;53.70;;;;;;6136126;28;81174;-67
2021/06/29 02:48:05;;;;;;;11.05;6.45;;;26.50;53.70;;;;;;6129660;28;80552;-68
2021/06/29 02:51:06;;;;;;;7.10;6.25;;;26.50;53.70;;;;;;6136045;28;80444;-68
2021/06/29 02:54:06;;;;;;;8.95;6.45;;;26.50;53.70;;;;;;6118048;28;82598;-68
2021/06/29 02:57:07;;;;;;;11.43;6.63;;;26.50;53.60;;;;;;6137099;28;80535;-68
2021/06/29 03:00:07;;;;;;;9.73;6.78;;;26.50;53.80;;;;;;6121877;28;80635;-67
2021/06/29 03:03:08;;;;;;;9.65;6.55;;;26.50;53.70;;;;;;6125433;28;80478;-68
2021/06/29 03:06:08;;;;;;;7.95;6.57;;;26.50;53.60;;;;;;6129315;28;81447;-68
2021/06/29 03:09:09;;;;;;;9.25;6.47;;;26.50;53.70;;;;;;6136142;28;80860;-68
2021/06/29 03:12:09;;;;;;;9.85;6.75;;;26.50;54.00;;;;;;6133213;28;82619;-68
2021/06/29 03:15:10;;;;;;;10.82;6.03;;;26.50;53.80;;;;;;6134948;28;80627;-68
2021/06/29 03:18:11;;;;;;;9.02;6.78;;;26.50;53.60;;;;;;6137005;28;80667;-68
2021/06/29 03:21:11;;;;;;;14.55;6.30;;;26.50;53.60;;;;;;6126033;28;80586;-68
2021/06/29 03:24:12;;;;;;;9.68;6.80;;;26.50;53.80;;;;;;6133336;28;80297;-69
2021/06/29 03:27:12;;;;;;;8.63;6.15;;;26.50;53.60;;;;;;6123994;28;80562;-68
2021/06/29 03:30:13;;;;;;;9.32;6.07;;;26.50;53.70;;;;;;6131639;28;81407;-69
2021/06/29 03:33:13;;;;;;;8.93;6.20;;;26.50;53.80;;;;;;6131151;28;80602;-68
2021/06/29 03:36:14;;;;;;;8.13;6.43;;;26.50;53.80;;;;;;6137075;28;80367;-68
2021/06/29 03:39:14;;;;;;;12.05;7.00;;;26.50;53.70;;;;;;6135097;28;82948;-69
2021/06/29 03:42:15;;;;;;;8.32;6.15;;;26.50;53.60;;;;;;6131638;28;80297;-69
2021/06/29 03:45:16;;;;;;;8.07;6.53;;;26.50;53.60;;;;;;6135371;28;80734;-69
2021/06/29 03:48:16;;;;;;;10.75;6.72;;;26.50;53.90;;;;;;6133798;28;81225;-69
2021/06/29 03:51:17;;;;;;;7.95;5.88;;;26.50;53.70;;;;;;6124183;28;80393;-69
2021/06/29 03:54:17;;;;;;;9.18;6.68;;;26.50;53.80;;;;;;6132057;28;81174;-71
2021/06/29 03:57:18;;;;;;;9.93;6.78;;;26.50;53.70;;;;;;6137002;28;81605;-67
2021/06/29 04:00:18;;;;;;;10.40;7.32;;;26.50;53.60;;;;;;6133527;28;83146;-64
2021/06/29 04:03:19;;;;;;;9.60;7.00;;;26.50;53.70;;;;;;6127564;28;82582;-66
2021/06/29 04:06:19;;;;;;;11.00;7.18;;;26.50;53.30;;;;;;6134837;28;80566;-65
2021/06/29 04:09:20;;;;;;;10.45;8.18;;;26.50;53.50;;;;;;6125704;28;80632;-67
2021/06/29 04:12:20;;;;;;;29.98;8.25;;;26.50;53.30;;;;;;6128937;28;80876;-66
2021/06/29 04:15:21;;;;;;;13.30;8.43;;;26.50;53.10;;;;;;6123393;28;83610;-67
2021/06/29 04:18:21;;;;;;;10.15;7.43;;;26.50;53.40;;;;;;6135001;28;81016;-67
2021/06/29 04:21:22;;;;;;;10.93;7.95;;;26.50;53.60;;;;;;6134066;28;80228;-66
2021/06/29 04:24:22;;;;;;;9.13;7.68;;;26.50;53.50;;;;;;6133076;28;80593;-67
2021/06/29 04:27:23;;;;;;;10.20;7.22;;;26.50;53.30;;;;;;6130495;28;80564;-66
2021/06/29 04:30:23;;;;;;;10.93;7.55;;;26.50;53.10;;;;;;6131924;28;81213;-66
2021/06/29 04:33:24;;;;;;;10.70;7.80;;;26.50;53.20;;;;;;6136668;28;80653;-66
2021/06/29 04:36:24;;;;;;;11.10;7.65;;;26.50;53.20;;;;;;6128087;28;80471;-66
2021/06/29 04:39:25;;;;;;;13.90;8.25;;;26.50;53.90;;;;;;6124395;28;80834;-66
2021/06/29 04:42:25;;;;;;;13.93;7.82;;;26.50;54.10;;;;;;6128663;28;80773;-66
2021/06/29 04:45:27;;;;;;;11.88;8.23;;;26.50;53.40;;;;;;6130315;28;81233;-66
2021/06/29 04:48:27;;;;;;;11.55;7.22;;;26.50;54.20;;;;;;6121661;28;80973;-67
2021/06/29 04:51:28;;;;;;;17.20;10.20;;;26.50;53.80;;;;;;6137818;28;83567;-66
2021/06/29 04:54:28;;;;;;;18.73;9.10;;;26.50;54.00;;;;;;6129871;28;83002;-66
2021/06/29 04:57:29;;;;;;;14.88;9.18;;;26.50;54.10;;;;;;6121847;28;83034;-65
2021/06/29 05:00:29;;;;;;;16.33;9.45;;;26.50;53.70;;;;;;6128187;28;80538;-66
2021/06/29 05:03:30;;;;;;;15.05;9.68;;;26.50;53.60;;;;;;6128927;28;80652;-66
2021/06/29 05:06:30;;;;;;;13.13;9.32;;;26.50;53.60;;;;;;6118514;28;80528;-71
2021/06/29 05:09:31;;;;;;;20.45;13.10;;;26.60;53.60;;;;;;6128220;28;80583;-69
2021/06/29 05:12:32;;;;;;;23.48;13.63;;;26.60;53.60;;;;;;6129346;28;82979;-69
2021/06/29 05:15:32;;;;;;;21.38;13.80;;;26.60;53.80;;;;;;6127270;28;83745;-71
2021/06/29 05:18:33;;;;;;;28.50;13.85;;;26.70;54.10;;;;;;6126877;28;89561;-71
2021/06/29 05:21:33;;;;;;;23.48;14.38;;;26.70;54.10;;;;;;6129897;28;84309;-71
2021/06/29 05:24:34;;;;;;;26.95;14.93;;;26.70;54.10;;;;;;6126453;28;83380;-71
2021/06/29 05:27:34;;;;;;;21.77;13.13;;;26.70;54.20;;;;;;6125097;28;83257;-66
2021/06/29 05:30:35;;;;;;;24.15;11.45;;;26.70;54.10;;;;;;6118781;28;83438;-67
2021/06/29 05:33:35;;;;;;;17.02;10.57;;;26.60;53.80;;;;;;6126125;28;85785;-66
2021/06/29 05:36:36;;;;;;;21.73;11.65;;;26.60;54.00;;;;;;6126687;28;84671;-68
2021/06/29 05:39:36;;;;;;;20.63;10.25;;;26.60;53.50;;;;;;6129693;28;82870;-74
2021/06/29 05:42:37;;;;;;;17.92;9.77;;;26.60;53.70;;;;;;6116884;28;82849;-73
2021/06/29 05:45:37;;;;;;;15.85;8.77;;;26.60;53.40;;;;;;6125528;28;84036;-74
2021/06/29 05:48:38;;;;;;;15.52;8.90;;;26.60;53.30;;;;;;6133575;28;80640;-68
2021/06/29 05:51:38;;;;;;;15.82;8.98;;;26.60;52.60;;;;;;6135190;28;80457;-73
2021/06/29 05:54:41;;;;;;;11.85;8.75;;;26.60;52.60;;;;;;6121908;28;80284;-74
2021/06/29 05:57:41;;;;;;;20.73;9.77;;;26.60;53.20;;;;;;6134410;28;81270;-71
2021/06/29 06:00:42;;;;;;;18.73;9.93;;;26.60;53.50;;;;;;6133522;28;81333;-73
2021/06/29 06:03:42;;;;;;;18.33;10.27;;;26.60;53.20;;;;;;6124720;28;80631;-74
2021/06/29 06:06:43;;;;;;;16.88;9.88;;;26.50;53.10;;;;;;6126015;28;82847;-75
2021/06/29 06:09:43;;;;;;;14.93;9.55;;;26.50;53.10;;;;;;6129451;28;83523;-74
2021/06/29 06:12:44;;;;;;;13.43;9.65;;;26.50;53.10;;;;;;6130671;28;80371;-74
2021/06/29 06:15:44;;;;;;;17.30;10.52;;;26.50;53.20;;;;;;6132819;28;80788;-73
2021/06/29 06:18:45;;;;;;;14.32;10.00;;;26.50;53.20;;;;;;6132309;28;82966;-74
2021/06/29 06:21:46;;;;;;;17.73;8.82;;;26.50;53.20;;;;;;6138932;28;83411;-74
2021/06/29 06:24:46;;;;;;;16.63;10.13;;;26.40;54.10;;;;;;6134120;28;84717;-73
2021/06/29 06:27:48;;;;;;;11.45;9.15;;;26.40;53.30;;;;;;6122785;28;83120;-74
2021/06/29 06:30:48;;;;;;;18.65;9.52;;;26.40;53.60;;;;;;6123575;28;84039;-74
2021/06/29 06:33:49;;;;;;;13.48;9.35;;;26.40;53.90;;;;;;6130226;28;80506;-73
2021/06/29 06:36:49;;;;;;;22.02;11.35;;;26.40;54.00;;;;;;6135487;28;81314;-75
2021/06/29 06:39:50;;;;;;;22.77;11.35;;;26.40;54.20;;;;;;6123060;28;82954;-62
2021/06/29 06:42:50;;;;;;;18.63;10.32;;;26.50;54.50;;;;;;6135959;28;84118;-72
2021/06/29 06:45:51;;;;;;;12.45;8.85;;;26.50;54.50;;;;;;6131308;28;85811;-73
2021/06/29 06:48:51;;;;;;;18.98;9.35;;;26.50;54.90;;;;;;6136500;28;83587;-71
2021/06/29 06:51:52;;;;;;;17.33;9.45;;;26.50;54.30;;;;;;6132742;28;82718;-73
2021/06/29 06:54:52;;;;;;;13.20;8.60;;;26.50;54.80;;;;;;6129379;28;80863;-69
2021/06/29 06:57:53;;;;;;;16.75;9.68;;;26.50;55.30;;;;;;6132142;28;82982;-68
2021/06/29 07:00:53;;;;;;;10.88;8.23;;;26.60;55.20;;;;;;6128173;28;80672;-70
2021/06/29 07:03:54;;;;;;;13.98;9.70;;;26.50;55.10;;;;;;6134327;28;80811;-71
2021/06/29 07:06:54;;;;;;;13.45;8.63;;;26.50;55.20;;;;;;6135429;28;80643;-69
2021/06/29 07:09:55;;;;;;;15.65;8.93;;;26.60;54.40;;;;;;6130800;28;80412;-66
2021/06/29 07:12:55;;;;;;;15.98;8.85;;;26.60;55.30;;;;;;6130502;28;80428;-70
2021/06/29 07:15:56;;;;;;;14.13;8.60;;;26.60;55.30;;;;;;6128436;28;81020;-67
2021/06/29 07:18:56;;;;;;;13.40;8.93;;;26.60;54.70;;;;;;6136175;28;80672;-68
2021/06/29 07:21:57;;;;;;;14.77;8.63;;;26.60;54.90;;;;;;6134044;28;81640;-68
2021/06/29 07:24:57;;;;;;;12.90;8.93;;;26.60;54.50;;;;;;6133721;28;80250;-66
2021/06/29 07:27:58;;;;;;;12.48;8.40;;;26.60;55.00;;;;;;6131655;28;80351;-66
2021/06/29 07:30:58;;;;;;;15.10;8.68;;;26.70;54.90;;;;;;6134791;28;80497;-66
2021/06/29 07:33:59;;;;;;;11.27;8.73;;;26.70;55.30;;;;;;6130737;28;81523;-67
2021/06/29 07:37:00;;;;;;;15.35;8.77;;;26.70;55.30;;;;;;6132567;28;80631;-67
2021/06/29 07:40:00;;;;;;;12.02;9.30;;;26.70;55.10;;;;;;6133501;28;80192;-67
2021/06/29 07:43:01;;;;;;;11.35;8.98;;;26.70;55.10;;;;;;6129046;28;81114;-67
2021/06/29 07:46:01;;;;;;;11.50;9.27;;;26.70;54.90;;;;;;6132326;28;80447;-67
2021/06/29 07:49:02;;;;;;;15.20;9.95;;;26.70;55.00;;;;;;6126825;28;81544;-66
2021/06/29 07:52:02;;;;;;;17.52;9.20;;;26.70;55.00;;;;;;6132167;28;80502;-67
2021/06/29 07:55:03;;;;;;;11.98;9.40;;;26.70;55.20;;;;;;6132558;28;80936;-68
2021/06/29 07:58:03;;;;;;;13.00;10.05;;;26.70;54.90;;;;;;6133310;28;80454;-68
2021/06/29 08:01:04;;;;;;;15.18;10.00;;;26.70;55.10;;;;;;6128408;28;83047;-67
2021/06/29 08:04:04;;;;;;;14.25;10.10;;;26.70;55.10;;;;;;6130156;28;83388;-68
2021/06/29 08:07:05;;;;;;;17.10;10.63;;;26.80;54.90;;;;;;6126202;28;83133;-67
2021/06/29 08:10:05;;;;;;;19.55;10.43;;;26.70;55.00;;;;;;6129246;28;84118;-67
2021/06/29 08:13:07;;;;;;;16.67;10.13;;;26.70;54.70;;;;;;6125147;28;83171;-67
2021/06/29 08:16:07;;;;;;;15.77;9.60;;;26.70;54.90;;;;;;6126166;28;83155;-68
2021/06/29 08:19:08;;;;;;;11.57;9.55;;;26.80;55.10;;;;;;6133888;28;88396;-68
2021/06/29 08:22:08;;;;;;;17.48;9.10;;;26.70;54.90;;;;;;6133815;28;80420;-68
2021/06/29 08:25:09;;;;;;;11.82;9.02;;;26.70;54.60;;;;;;6131556;28;82786;-68
2021/06/29 08:28:09;;;;;;;14.55;9.40;;;26.70;54.50;;;;;;6133869;28;80680;-68
2021/06/29 08:31:10;;;;;;;13.77;8.45;;;26.80;54.50;;;;;;6133353;28;81554;-68
2021/06/29 08:34:10;;;;;;;14.73;8.45;;;26.80;54.20;;;;;;6128005;28;81073;-67
2021/06/29 08:37:11;;;;;;;11.90;7.40;;;26.80;53.90;;;;;;6130300;28;81003;-68
2021/06/29 08:40:12;;;;;;;8.68;7.00;;;26.80;53.30;;;;;;6133029;28;81125;-68
2021/06/29 08:43:12;;;;;;;9.00;6.63;;;26.80;51.80;;;;;;6131794;28;81914;-67
2021/06/29 08:46:13;;;;;;;7.93;6.45;;;26.90;51.40;;;;;;6129221;28;82534;-68
2021/06/29 08:49:13;;;;;;;8.07;6.30;;;26.90;51.60;;;;;;6134715;28;81066;-69
2021/06/29 08:52:14;;;;;;;8.25;5.90;;;26.90;50.80;;;;;;6134658;28;80647;-68
2021/06/29 08:55:14;;;;;;;7.53;5.78;;;26.90;49.50;;;;;;6132974;28;80681;-69
2021/06/29 08:58:15;;;;;;;6.47;5.22;;;26.80;48.80;;;;;;6135157;28;80664;-68
2021/06/29 09:01:16;;;;;;;10.82;6.40;;;26.80;49.40;;;;;;6129646;28;80584;-68
2021/06/29 09:04:16;;;;;;;7.20;5.68;;;26.90;49.50;;;;;;6133138;28;80526;-70
2021/06/29 09:07:17;;;;;;;7.20;5.95;;;26.90;49.30;;;;;;6132451;28;80498;-69
2021/06/29 09:10:17;;;;;;;6.47;5.70;;;26.90;49.20;;;;;;6128308;28;81347;-69
2021/06/29 09:13:18;;;;;;;9.32;5.43;;;26.90;49.30;;;;;;6131867;28;82942;-69
2021/06/29 09:16:18;;;;;;;7.63;6.13;;;26.90;49.70;;;;;;6134895;28;81421;-69
2021/06/29 09:19:19;;;;;;;8.00;6.18;;;26.90;50.90;;;;;;6131603;28;81181;-68
2021/06/29 09:22:19;;;;;;;7.32;6.10;;;26.90;50.60;;;;;;6130938;28;80615;-69
2021/06/29 09:25:20;;;;;;;7.90;5.55;;;26.90;50.10;;;;;;6132482;28;80973;-68
2021/06/29 09:28:20;;;;;;;11.80;6.10;;;26.90;50.40;;;;;;6140335;28;80533;-69
2021/06/29 09:31:21;;;;;;;10.32;6.22;;;26.90;51.10;;;;;;6138455;28;80781;-68
2021/06/29 09:34:21;;;;;;;8.48;5.95;;;26.80;49.90;;;;;;6138211;28;80271;-69
2021/06/29 09:37:22;;;;;;;7.75;6.25;;;26.70;49.90;;;;;;6136697;28;81292;-68
2021/06/29 09:40:24;;;;;;;6.63;5.90;;;26.70;50.20;;;;;;6135667;28;80140;-69
2021/06/29 09:43:25;;;;;;;9.18;5.95;;;26.80;51.80;;;;;;6135081;28;80369;-69
2021/06/29 09:46:26;;;;;;;8.07;5.82;;;26.80;52.20;;;;;;6132197;28;83187;-68
2021/06/29 09:49:27;;;;;;;10.25;6.07;;;26.80;52.50;;;;;;6136645;28;80293;-69
2021/06/29 09:52:27;;;;;;;8.23;5.70;;;26.80;53.20;;;;;;6134699;28;81998;-68
2021/06/29 09:55:28;;;;;;;9.02;6.28;;;26.80;53.70;;;;;;6137214;28;80252;-69
2021/06/29 09:58:29;;;;;;;12.75;7.60;;;26.80;54.70;;;;;;6131977;28;81869;-69
2021/06/29 10:01:29;;;;;;;14.45;7.15;;;26.60;56.60;;;;;;6134608;28;81644;-69
2021/06/29 10:04:31;;;;;;;12.65;7.82;;;26.50;57.30;;;;;;6135137;28;81331;-69
2021/06/29 10:07:32;;;;;;;13.85;7.97;;;26.60;57.30;;;;;;6136583;28;80415;-68
2021/06/29 10:10:32;;;;;;;10.50;7.43;;;26.70;57.80;;;;;;6130535;28;80850;-68
2021/06/29 10:13:34;;;;;;;14.18;7.45;;;26.70;57.30;;;;;;6135291;28;87687;-69
2021/06/29 10:16:34;;;;;;;10.18;7.13;;;26.70;56.60;;;;;;6137943;28;81221;-68
2021/06/29 10:20:11;;;;;;;14.18;7.15;;;26.70;57.60;;;;;;6131938;28;80097;-68
2021/06/29 10:23:10;;;;;;;13.35;8.25;;;26.70;57.40;;;;;;6127876;28;81586;-68
2021/06/29 10:26:12;;;;;;;12.40;8.07;;;26.80;57.00;;;;;;6132386;28;80714;-68
2021/06/29 10:29:12;;;;;;;13.02;7.50;;;26.80;59.50;;;;;;6129455;28;81078;-68
2021/06/29 10:32:13;;;;;;;10.75;8.07;;;26.80;60.20;;;;;;6120016;28;80450;-69
2021/06/29 10:35:14;;;;;;;14.63;7.85;;;26.80;61.30;;;;;;6132967;28;81501;-69
2021/06/29 10:38:15;;;;;;;10.00;7.97;;;26.90;61.90;;;;;;6135927;28;81193;-69
2021/06/29 10:41:16;;;;;;;9.73;7.32;;;26.90;61.00;;;;;;6132921;28;80840;-70
2021/06/29 10:44:16;;;;;;;10.75;8.02;;;26.90;60.10;;;;;;6134836;28;81950;-70
2021/06/29 10:47:17;;;;;;;10.18;7.22;;;26.90;61.10;;;;;;6136527;28;80703;-71
2021/06/29 10:50:18;;;;;;;11.88;8.02;;;26.90;61.60;;;;;;6133198;28;80244;-69
2021/06/29 10:53:18;;;;;;;10.40;7.60;;;26.90;60.90;;;;;;6136513;28;80485;-70
2021/06/29 10:56:20;;;;;;;11.45;7.82;;;26.90;60.40;;;;;;6125244;28;81249;-67
2021/06/29 10:59:21;;;;;;;8.98;7.10;;;26.90;60.80;;;;;;6117393;28;84826;-69
2021/06/29 11:02:21;;;;;;;8.10;6.82;;;27.00;60.30;;;;;;6128999;28;80268;-69
2021/06/29 11:05:22;;;;;;;10.10;7.10;;;27.00;59.60;;;;;;6139061;28;80389;-69
2021/06/29 11:08:27;;;;;;;7.78;6.78;;;27.00;59.80;;;;;;6134563;28;80790;-69
2021/06/29 11:11:28;;;;;;;14.68;8.18;;;27.00;60.40;;;;;;6139633;28;80319;-69
2021/06/29 11:14:29;;;;;;;9.18;7.30;;;27.00;61.00;;;;;;6135203;28;80986;-69
2021/06/29 11:17:29;;;;;;;8.55;7.05;;;27.00;60.00;;;;;;6136279;28;81417;-68
2021/06/29 11:20:30;;;;;;;14.40;7.20;;;27.10;61.30;;;;;;6137217;28;80576;-67
2021/06/29 11:23:31;;;;;;;7.40;6.70;;;27.00;60.00;;;;;;6128615;28;83594;-70
2021/06/29 11:26:32;;;;;;;9.20;5.75;;;27.10;59.10;;;;;;6128486;28;80331;-70
2021/06/29 11:29:32;;;;;;;7.07;6.18;;;27.10;58.50;;;;;;6134017;28;82428;-69
2021/06/29 11:32:33;;;;;;;10.98;6.80;;;27.10;59.80;;;;;;6131863;28;80882;-69
2021/06/29 11:35:33;;;;;;;6.55;5.70;;;27.10;59.90;;;;;;6131893;28;80197;-70
2021/06/29 11:38:34;;;;;;;8.40;6.72;;;27.20;59.60;;;;;;6130483;28;80042;-69
2021/06/29 11:41:35;;;;;;;10.13;7.13;;;27.20;58.80;;;;;;6133515;28;80745;-69
2021/06/29 11:44:35;;;;;;;8.02;6.25;;;27.20;58.00;;;;;;6133516;28;80825;-69
2021/06/29 11:47:36;;;;;;;7.68;6.55;;;27.20;57.10;;;;;;6133453;28;80963;-69
2021/06/29 11:50:36;;;;;;;7.95;6.32;;;27.20;55.70;;;;;;6132676;28;80696;-68
2021/06/29 11:53:37;;;;;;;7.40;6.25;;;27.20;54.80;;;;;;6134646;28;81208;-68
2021/06/29 11:56:37;;;;;;;9.00;6.88;;;27.20;54.20;;;;;;6132082;28;80319;-70
2021/06/29 11:59:38;;;;;;;7.10;5.97;;;27.20;54.50;;;;;;6133680;28;81938;-69
2021/06/29 12:02:38;;;;;;;10.77;7.30;;;27.20;55.10;;;;;;6135348;28;80365;-69
2021/06/29 12:05:39;;;;;;;8.98;6.57;;;27.30;55.70;;;;;;6133046;28;80651;-67
2021/06/29 12:08:39;;;;;;;14.23;6.80;;;27.20;55.30;;;;;;6132055;28;80379;-68
2021/06/29 12:11:40;;;;;;;8.80;6.20;;;27.20;55.40;;;;;;6133294;28;82387;-68
2021/06/29 12:14:40;;;;;;;8.13;6.22;;;27.30;55.10;;;;;;6130873;28;80456;-69
2021/06/29 12:17:41;;;;;;;7.93;6.10;;;27.20;54.30;;;;;;6128263;28;82018;-69
2021/06/29 12:20:41;;;;;;;10.75;6.10;;;27.20;54.10;;;;;;6128954;28;81781;-69
2021/06/29 12:23:45;;;;;;;7.43;6.35;;;27.20;54.40;;;;;;6119818;28;80506;-67
2021/06/29 12:26:45;;;;;;;9.63;7.70;;;27.20;55.40;;;;;;6122731;28;80381;-66
2021/06/29 12:29:46;;;;;;;8.55;6.85;;;27.20;55.40;;;;;;6116842;28;81331;-67
2021/06/29 12:32:46;;;;;;;10.77;7.82;;;27.30;55.40;;;;;;6130422;28;80841;-67
2021/06/29 12:35:47;;;;;;;9.10;6.82;;;27.30;54.60;;;;;;6127982;28;80792;-66
2021/06/29 12:38:47;;;;;;;8.32;6.40;;;27.30;53.50;;;;;;6131913;28;80609;-66
2021/06/29 12:41:48;;;;;;;11.07;6.68;;;27.30;53.70;;;;;;6129846;28;83112;-67
2021/06/29 12:44:48;;;;;;;7.35;6.47;;;27.20;53.60;;;;;;6129484;28;80471;-67
2021/06/29 12:47:49;;;;;;;6.68;5.97;;;27.20;53.10;;;;;;6125425;28;80314;-68
2021/06/29 12:50:49;;;;;;;6.78;5.70;;;27.20;52.20;;;;;;6132815;28;80784;-68
2021/06/29 12:53:50;;;;;;;6.90;6.15;;;27.20;51.40;;;;;;6131111;28;80502;-68
2021/06/29 12:56:50;;;;;;;6.15;5.43;;;27.20;51.30;;;;;;6129580;28;83288;-69
2021/06/29 12:59:51;;;;;;;8.38;6.03;;;27.20;51.80;;;;;;6132185;28;80653;-68
2021/06/29 13:02:51;;;;;;;8.80;5.95;;;27.20;51.70;;;;;;6130633;28;81603;-69
2021/06/29 13:05:52;;;;;;;16.13;5.57;;;27.20;52.50;;;;;;6129161;28;81919;-68
2021/06/29 13:08:52;;;;;;;13.93;5.80;;;27.20;52.90;;;;;;6125824;28;81133;-67
2021/06/29 13:11:53;;;;;;;10.85;6.22;;;27.20;52.90;;;;;;6126048;28;81682;-67
2021/06/29 13:14:53;;;;;;;11.93;6.68;;;27.20;53.00;;;;;;6128631;28;83757;-68
2021/06/29 13:17:55;;;;;;;6.00;5.38;;;27.20;53.40;;;;;;6127692;28;80311;-68
2021/06/29 13:20:56;;;;;;;8.15;5.80;;;27.30;53.50;;;;;;6134156;28;80706;-67
2021/06/29 13:23:56;;;;;;;7.40;5.97;;;27.20;53.60;;;;;;6124359;28;81493;-66
2021/06/29 13:26:57;;;;;;;5.90;5.32;;;27.20;54.00;;;;;;6129892;28;80306;-67
2021/06/29 13:29:57;;;;;;;6.15;5.38;;;27.20;54.20;;;;;;6130033;28;81625;-68
2021/06/29 13:32:58;;;;;;;8.85;6.15;;;27.30;54.10;;;;;;6132308;28;80889;-67
2021/06/29 13:35:58;;;;;;;6.97;6.32;;;27.20;54.40;;;;;;6119122;28;80363;-67
2021/06/29 13:38:59;;;;;;;6.32;5.72;;;27.20;55.20;;;;;;6099240;28;80538;-68
2021/06/29 13:41:59;;;;;;;8.63;6.05;;;27.20;55.30;;;;;;6122537;28;80515;-69
2021/06/29 13:45:00;;;;;;;10.98;6.22;;;27.20;55.10;;;;;;6130703;28;81697;-67
2021/06/29 13:48:00;;;;;;;6.38;5.63;;;27.30;55.10;;;;;;6132719;28;80358;-68
2021/06/29 13:51:01;;;;;;;6.53;5.90;;;27.30;55.80;;;;;;6132229;28;81168;-69
2021/06/29 13:54:01;;;;;;;6.65;5.95;;;27.30;55.80;;;;;;6133418;28;80222;-68
2021/06/29 13:57:02;;;;;;;9.13;6.07;;;27.30;55.90;;;;;;6131206;28;80524;-68
2021/06/29 14:00:02;;;;;;;9.13;6.45;;;27.30;55.80;;;;;;6124389;28;82482;-68
2021/06/29 14:03:12;;;;;;;6.50;5.85;;;27.30;56.60;;;;;;6114247;28;80259;-67
2021/06/29 14:06:13;;;;;;;10.05;6.18;;;27.40;56.30;;;;;;6108306;28;80597;-67
2021/06/29 14:09:13;;;;;;;6.78;6.05;;;27.30;56.50;;;;;;6126702;28;81408;-67
2021/06/29 14:12:14;;;;;;;9.15;6.05;;;27.30;56.30;;;;;;6138251;28;80498;-67
2021/06/29 14:15:14;;;;;;;12.15;6.30;;;27.40;56.60;;;;;;6133171;28;80579;-67
2021/06/29 14:18:15;;;;;;;9.15;6.95;;;27.40;56.60;;;;;;6133742;28;80344;-67
2021/06/29 14:21:15;;;;;;;6.68;6.07;;;27.40;56.30;;;;;;6132833;28;80580;-67
2021/06/29 14:24:16;;;;;;;7.43;6.70;;;27.40;56.10;;;;;;6120847;28;83610;-66
2021/06/29 14:27:17;;;;;;;12.85;6.32;;;27.40;56.00;;;;;;6122041;28;80170;-67
2021/06/29 14:30:17;;;;;;;7.05;6.05;;;27.40;55.90;;;;;;6137397;28;81660;-67
2021/06/29 14:33:18;;;;;;;7.63;5.90;;;27.40;56.20;;;;;;6139881;28;80300;-67
2021/06/29 14:36:18;;;;;;;6.70;6.05;;;27.40;55.20;;;;;;6162609;28;80542;-67
2021/06/29 14:39:20;;;;;;;7.35;6.15;;;27.40;55.40;;;;;;6134275;28;80015;-67
2021/06/29 14:42:21;;;;;;;6.45;5.80;;;27.40;55.10;;;;;;6128760;28;80754;-67
2021/06/29 14:45:21;;;;;;;6.22;5.63;;;27.40;55.10;;;;;;6133821;28;81089;-67
2021/06/29 14:48:22;;;;;;;9.13;5.57;;;27.40;54.90;;;;;;6132969;28;80335;-67
2021/06/29 14:51:25;;;;;;;6.90;6.20;;;27.40;54.70;;;;;;6135348;28;80326;-67
2021/06/29 14:54:27;;;;;;;8.80;6.32;;;27.40;54.60;;;;;;6127888;28;81279;-67
2021/06/29 14:57:27;;;;;;;8.13;6.45;;;27.40;54.70;;;;;;6135967;28;80427;-67
2021/06/29 15:00:28;;;;;;;7.85;5.78;;;27.40;54.60;;;;;;6123773;28;80400;-67
2021/06/29 15:03:28;;;;;;;8.93;6.20;;;27.40;54.40;;;;;;6135466;28;80386;-70
2021/06/29 15:06:29;;;;;;;8.50;7.10;;;27.40;54.50;;;;;;6129582;28;82985;-67
2021/06/29 15:09:29;;;;;;;8.25;5.93;;;27.40;54.60;;;;;;6134852;28;80951;-68
2021/06/29 15:12:30;;;;;;;9.85;6.00;;;27.40;54.00;;;;;;6136727;28;80068;-67
2021/06/29 15:15:31;;;;;;;7.57;5.32;;;27.40;54.10;;;;;;6133850;28;80494;-66
2021/06/29 15:18:31;;;;;;;6.63;5.63;;;27.40;54.20;;;;;;6137091;28;82663;-66
2021/06/29 15:21:32;;;;;;;6.38;5.57;;;27.40;53.90;;;;;;6133930;28;80326;-66
2021/06/29 15:24:32;;;;;;;6.00;5.40;;;27.50;54.10;;;;;;6129809;28;80505;-66
2021/06/29 15:27:33;;;;;;;6.68;5.85;;;27.50;54.30;;;;;;6132757;28;80395;-66
2021/06/29 15:30:33;;;;;;;6.35;5.75;;;27.50;54.40;;;;;;6124038;28;80770;-67
2021/06/29 15:33:34;;;;;;;8.88;6.00;;;27.50;54.50;;;;;;6131842;28;80608;-67
2021/06/29 15:36:34;;;;;;;9.40;6.10;;;27.50;54.80;;;;;;6130299;28;80845;-66
2021/06/29 15:39:35;;;;;;;7.35;6.15;;;27.50;54.80;;;;;;6132957;28;80505;-67